Time;durP1;ratioP1;P1;durP2;ratioP2;P2;SDS_P1;SDS_P2;PMS_P1;PMS_P2;Temp;Humidity;BMP_temperature;BMP_pressure;BME280_temperature;BME280_humidity;BME280_pressure;Samples;Min_cycle;Max_cycle;Signal;HPM_P1;HPM_P2
2022/08/23 00:01:22;;;;;;;4.67;4.17;;;25.80;52.70;;;;;;5114963;28;20916;-77
2022/08/23 00:03:51;;;;;;;6.43;3.67;;;26.20;51.40;;;;;;5114286;28;20490;-80
2022/08/23 00:06:19;;;;;;;4.43;3.67;;;26.40;51.10;;;;;;5120760;28;20518;-77
2022/08/23 00:08:47;;;;;;;6.17;3.67;;;26.60;50.20;;;;;;5113948;28;20467;-78
2022/08/23 00:11:26;;;;;;;6.33;3.57;;;26.80;49.90;;;;;;5113691;28;20403;-78
2022/08/23 00:13:55;;;;;;;3.60;3.30;;;26.80;49.40;;;;;;5113001;28;20450;-77
2022/08/23 00:16:24;;;;;;;9.50;4.27;;;26.90;49.20;;;;;;5112319;28;20486;-78
2022/08/23 00:18:51;;;;;;;3.53;3.23;;;27.00;48.90;;;;;;5116429;28;20457;-79
2022/08/23 00:21:19;;;;;;;5.40;3.50;;;27.00;48.70;;;;;;5115380;28;20483;-78
2022/08/23 00:23:47;;;;;;;3.70;3.40;;;27.10;48.50;;;;;;5114546;28;20467;-77
2022/08/23 00:26:16;;;;;;;3.37;3.00;;;27.20;48.30;;;;;;5114597;28;20475;-79
2022/08/23 00:28:44;;;;;;;3.13;2.93;;;27.20;48.30;;;;;;5119256;28;20438;-79
2022/08/23 00:31:14;;;;;;;4.03;3.63;;;27.20;48.10;;;;;;5120467;28;20415;-78
2022/08/23 00:33:42;;;;;;;4.63;3.00;;;27.30;47.70;;;;;;5115418;28;20409;-78
2022/08/23 00:36:10;;;;;;;5.50;3.30;;;27.20;47.60;;;;;;5117752;28;20438;-78
2022/08/23 00:38:38;;;;;;;3.40;3.10;;;27.30;47.40;;;;;;5115477;28;20491;-78
2022/08/23 00:41:06;;;;;;;6.77;3.00;;;27.30;47.30;;;;;;5119407;28;20893;-78
2022/08/23 00:49:17;;;;;;;3.20;2.80;;;27.30;46.70;;;;;;5114502;28;20402;-78
2022/08/23 00:51:47;;;;;;;3.37;2.93;;;27.30;46.80;;;;;;5117376;28;20519;-77
2022/08/23 00:54:20;;;;;;;3.93;3.50;;;27.30;46.70;;;;;;5110161;28;20444;-76
2022/08/23 00:56:48;;;;;;;2.77;2.57;;;27.30;46.60;;;;;;5114545;28;20512;-78
2022/08/23 00:59:16;;;;;;;3.40;3.10;;;27.30;46.30;;;;;;5111642;28;20515;-78
2022/08/23 01:01:46;;;;;;;6.10;2.97;;;27.30;46.10;;;;;;5113770;28;20502;-77
2022/08/23 01:04:16;;;;;;;3.20;2.87;;;27.30;46.00;;;;;;5116157;28;20455;-77
2022/08/23 01:06:46;;;;;;;11.30;3.70;;;27.30;45.80;;;;;;5117317;28;20536;-78
2022/08/23 01:09:16;;;;;;;3.70;3.03;;;27.40;46.00;;;;;;5118360;28;20403;-78
2022/08/23 01:11:46;;;;;;;3.57;2.87;;;27.40;45.80;;;;;;5115995;28;20534;-78
2022/08/23 01:14:15;;;;;;;3.17;2.87;;;27.30;45.70;;;;;;5117730;28;20532;-78
2022/08/23 01:16:45;;;;;;;4.00;3.17;;;27.30;45.70;;;;;;5097700;28;20539;-78
2022/08/23 01:19:16;;;;;;;5.37;2.80;;;27.30;45.60;;;;;;5098950;28;20460;-77
2022/08/23 01:21:47;;;;;;;2.60;2.40;;;27.30;45.40;;;;;;5098150;28;20433;-78
2022/08/23 01:24:16;;;;;;;5.23;2.77;;;27.30;45.40;;;;;;5098346;28;20518;-78
2022/08/23 01:27:04;;;;;;;3.93;2.80;;;27.40;45.40;;;;;;5097329;28;20428;-78
2022/08/23 01:29:32;;;;;;;4.90;3.00;;;27.40;45.00;;;;;;5096108;28;20480;-78
2022/08/23 01:32:00;;;;;;;2.80;2.60;;;27.30;44.80;;;;;;5112531;28;20506;-79
2022/08/23 01:34:28;;;;;;;3.40;2.60;;;27.40;44.90;;;;;;5118780;28;20486;-78
2022/08/23 01:37:03;;;;;;;2.97;2.70;;;27.40;44.60;;;;;;5119008;28;20439;-79
2022/08/23 01:39:33;;;;;;;2.60;2.50;;;27.40;44.70;;;;;;5131263;28;20455;-80
2022/08/23 01:42:01;;;;;;;4.70;2.90;;;27.40;44.70;;;;;;5131776;28;20459;-79
2022/08/23 01:44:34;;;;;;;3.80;3.10;;;27.30;44.60;;;;;;5131618;28;20467;-79
2022/08/23 01:47:02;;;;;;;4.27;2.80;;;27.30;44.80;;;;;;5128347;28;20520;-79
2022/08/23 01:49:30;;;;;;;2.90;2.73;;;27.30;44.50;;;;;;5129544;27;20467;-79
2022/08/23 01:51:59;;;;;;;5.10;3.27;;;27.30;44.60;;;;;;5131051;28;20506;-80
2022/08/23 01:54:26;;;;;;;5.50;2.80;;;27.30;44.40;;;;;;5131670;28;20521;-80
2022/08/23 01:56:56;;;;;;;3.20;2.90;;;27.30;44.30;;;;;;5130291;28;20522;-80
2022/08/23 01:59:24;;;;;;;3.47;2.77;;;27.30;44.30;;;;;;5130387;28;20425;-80
2022/08/23 02:01:52;;;;;;;2.90;2.70;;;27.30;44.40;;;;;;5131283;28;20507;-80
2022/08/23 02:04:21;;;;;;;3.60;2.57;;;27.30;44.10;;;;;;5127146;28;20489;-79
2022/08/23 02:06:49;;;;;;;3.40;3.10;;;27.30;44.40;;;;;;5130567;28;20526;-80
2022/08/23 02:09:17;;;;;;;4.70;3.03;;;27.30;44.10;;;;;;5131202;28;20451;-80
2022/08/23 02:11:45;;;;;;;5.10;2.70;;;27.30;44.10;;;;;;5131859;28;20472;-80
2022/08/23 02:14:15;;;;;;;2.83;2.63;;;27.40;43.90;;;;;;5130253;28;20466;-80
2022/08/23 02:16:44;;;;;;;3.63;2.93;;;27.30;44.00;;;;;;5131012;28;20438;-80
2022/08/23 02:19:30;;;;;;;3.03;2.80;;;27.30;44.10;;;;;;5131098;28;20445;-80
2022/08/23 02:21:58;;;;;;;3.60;2.70;;;27.30;44.00;;;;;;5127202;28;20457;-79
2022/08/23 02:24:26;;;;;;;5.00;2.60;;;27.30;44.20;;;;;;5130773;28;20438;-80
2022/08/23 02:26:56;;;;;;;8.83;3.03;;;27.20;44.00;;;;;;5130827;28;20463;-79
2022/08/23 02:29:28;;;;;;;2.60;2.40;;;27.20;43.60;;;;;;5129620;28;20477;-79
2022/08/23 02:31:56;;;;;;;3.23;3.00;;;27.20;44.10;;;;;;5127751;28;20421;-79
2022/08/23 02:34:25;;;;;;;3.00;2.70;;;27.20;44.10;;;;;;5126787;28;20505;-79
2022/08/23 02:37:02;;;;;;;3.97;3.10;;;27.20;44.20;;;;;;5128644;28;20440;-79
2022/08/23 02:39:30;;;;;;;3.60;3.30;;;27.20;44.20;;;;;;5124078;28;20449;-79
2022/08/23 02:41:59;;;;;;;3.10;2.90;;;27.20;44.10;;;;;;5127702;28;20440;-79
2022/08/23 02:44:33;;;;;;;3.93;2.70;;;27.10;44.10;;;;;;5127923;28;21052;-79
2022/08/23 02:47:01;;;;;;;3.13;2.63;;;27.10;44.40;;;;;;5127900;28;20462;-79
2022/08/23 02:49:29;;;;;;;3.17;2.97;;;27.10;44.30;;;;;;5127413;28;20447;-79
2022/08/23 02:51:57;;;;;;;4.73;3.03;;;27.10;44.40;;;;;;5129333;28;20440;-79
2022/08/23 02:54:25;;;;;;;3.30;3.00;;;27.00;44.20;;;;;;5128688;28;20492;-80
2022/08/23 02:56:53;;;;;;;3.77;3.33;;;27.00;44.30;;;;;;5127634;28;20467;-79
2022/08/23 02:59:21;;;;;;;3.83;2.87;;;27.00;44.20;;;;;;5120455;28;20508;-79
2022/08/23 03:01:50;;;;;;;6.10;3.07;;;27.00;44.20;;;;;;5132319;28;20436;-80
2022/08/23 03:04:18;;;;;;;3.40;3.10;;;27.00;44.30;;;;;;5131555;28;20456;-80
2022/08/23 03:06:47;;;;;;;3.37;3.10;;;27.00;44.60;;;;;;5130049;28;20498;-80
2022/08/23 03:09:15;;;;;;;3.33;3.03;;;27.00;44.40;;;;;;5130503;28;20422;-80
2022/08/23 03:11:44;;;;;;;4.10;2.97;;;27.00;44.40;;;;;;5130477;28;20444;-80
2022/08/23 03:14:12;;;;;;;4.33;3.30;;;27.00;44.50;;;;;;5130265;28;20438;-80
2022/08/23 03:16:41;;;;;;;3.93;3.00;;;27.00;44.30;;;;;;5124099;28;20512;-80
2022/08/23 03:19:10;;;;;;;4.37;3.13;;;27.10;44.40;;;;;;5129522;28;20473;-80
2022/08/23 03:21:38;;;;;;;3.80;2.40;;;27.10;44.30;;;;;;5128869;28;20444;-80
2022/08/23 03:24:10;;;;;;;4.77;2.80;;;27.20;44.30;;;;;;5130067;28;20470;-80
2022/08/23 03:26:38;;;;;;;2.60;2.40;;;27.10;43.90;;;;;;5130084;28;20533;-80
2022/08/23 03:29:06;;;;;;;3.87;3.00;;;27.00;44.10;;;;;;5124386;28;20427;-79
2022/08/23 03:31:33;;;;;;;3.43;3.13;;;27.00;44.40;;;;;;5121937;28;20415;-79
2022/08/23 03:34:01;;;;;;;3.10;2.67;;;27.00;44.30;;;;;;5125000;28;20558;-79
2022/08/23 03:36:31;;;;;;;3.40;3.10;;;26.90;44.40;;;;;;5129736;28;20452;-80
2022/08/23 03:38:59;;;;;;;3.50;3.20;;;27.00;44.40;;;;;;5129435;28;20507;-79
2022/08/23 03:41:27;;;;;;;3.30;3.00;;;26.90;44.60;;;;;;5129286;28;20500;-79
2022/08/23 03:43:55;;;;;;;4.83;2.87;;;26.90;44.40;;;;;;5128964;28;20520;-79
2022/08/23 03:46:23;;;;;;;5.00;3.00;;;26.90;44.40;;;;;;5128959;28;20472;-79
2022/08/23 03:48:51;;;;;;;3.23;2.90;;;27.00;44.20;;;;;;5129024;28;20467;-80
2022/08/23 03:51:19;;;;;;;3.60;2.80;;;27.00;44.50;;;;;;5124020;28;20471;-79
2022/08/23 03:53:49;;;;;;;3.10;2.90;;;26.90;44.50;;;;;;5128149;28;20439;-79
2022/08/23 03:56:23;;;;;;;4.20;2.90;;;27.00;44.30;;;;;;5127873;28;20846;-80
2022/08/23 03:58:51;;;;;;;7.37;2.53;;;27.00;44.00;;;;;;5126937;28;20526;-79
2022/08/23 04:01:19;;;;;;;5.40;3.47;;;27.00;44.10;;;;;;5127437;28;20463;-79
2022/08/23 04:03:53;;;;;;;5.77;3.20;;;26.90;44.60;;;;;;5128019;28;20462;-80
2022/08/23 04:06:21;;;;;;;3.97;3.30;;;26.80;44.60;;;;;;5129738;28;20488;-79
2022/08/23 04:08:53;;;;;;;4.30;2.90;;;26.80;44.80;;;;;;5128461;28;20438;-79
2022/08/23 04:11:21;;;;;;;4.57;3.30;;;26.70;45.10;;;;;;5130715;27;20418;-79
2022/08/23 04:13:49;;;;;;;3.63;3.33;;;26.60;45.00;;;;;;5131126;28;20436;-79
2022/08/23 04:16:17;;;;;;;5.40;3.10;;;26.60;45.10;;;;;;5131131;28;20406;-79
2022/08/23 04:18:45;;;;;;;4.33;2.80;;;26.60;45.10;;;;;;5131314;28;20410;-79
2022/08/23 04:21:16;;;;;;;6.97;5.73;;;26.60;45.10;;;;;;5130541;28;20456;-79
2022/08/23 04:23:44;;;;;;;8.80;5.70;;;26.50;45.30;;;;;;5120648;28;20452;-79
2022/08/23 04:26:13;;;;;;;8.43;5.30;;;26.50;45.30;;;;;;5130446;28;20447;-80
2022/08/23 04:28:41;;;;;;;4.83;4.37;;;26.40;45.30;;;;;;5129738;28;20406;-80
2022/08/23 04:31:09;;;;;;;4.73;4.23;;;26.40;45.60;;;;;;5129583;28;20436;-80
2022/08/23 04:33:37;;;;;;;7.20;3.47;;;26.40;45.20;;;;;;5130987;28;20441;-80
2022/08/23 04:36:07;;;;;;;5.70;5.13;;;26.40;45.30;;;;;;5124227;28;20475;-79
2022/08/23 04:38:35;;;;;;;5.70;5.10;;;26.40;45.30;;;;;;5122463;28;20451;-79
2022/08/23 04:43:50;;;;;;;7.10;5.20;;;26.40;45.30;;;;;;5123110;28;20410;-79
2022/08/23 04:46:18;;;;;;;4.80;4.07;;;26.40;45.40;;;;;;5130171;28;20459;-79
2022/08/23 04:48:46;;;;;;;5.53;4.20;;;26.40;45.30;;;;;;5130085;28;20432;-79
2022/08/23 04:51:14;;;;;;;5.60;4.10;;;26.40;45.40;;;;;;5125360;28;20888;-79
2022/08/23 04:53:42;;;;;;;10.07;4.10;;;26.40;45.50;;;;;;5125692;28;20503;-79
2022/08/23 04:56:10;;;;;;;6.10;4.50;;;26.40;45.60;;;;;;5126687;28;20506;-79
2022/08/23 04:58:38;;;;;;;5.83;4.50;;;26.50;45.40;;;;;;5119709;28;20486;-80
2022/08/23 05:01:09;;;;;;;5.43;3.93;;;26.40;45.50;;;;;;5123939;28;20467;-79
2022/08/23 05:03:37;;;;;;;4.70;3.97;;;26.50;45.40;;;;;;5122878;28;20446;-80
2022/08/23 05:06:06;;;;;;;4.37;3.73;;;26.50;45.40;;;;;;5121059;28;20530;-79
2022/08/23 05:08:34;;;;;;;5.90;4.20;;;26.50;45.30;;;;;;5121625;28;20473;-79
2022/08/23 05:11:02;;;;;;;4.60;3.90;;;26.50;45.40;;;;;;5122422;28;20686;-80
2022/08/23 05:13:30;;;;;;;6.80;4.27;;;26.40;45.40;;;;;;5116535;28;20452;-80
2022/08/23 05:16:01;;;;;;;6.60;3.90;;;26.50;45.60;;;;;;5122574;28;20826;-80
2022/08/23 05:18:30;;;;;;;5.47;3.83;;;26.50;45.10;;;;;;5123155;28;20451;-79
2022/08/23 05:20:58;;;;;;;3.67;3.47;;;26.50;45.60;;;;;;5123777;28;20463;-79
2022/08/23 05:23:26;;;;;;;6.23;3.50;;;26.60;45.40;;;;;;5125503;28;20580;-79
2022/08/23 05:25:59;;;;;;;4.03;3.63;;;26.60;45.40;;;;;;5125228;28;20474;-80
2022/08/23 05:28:28;;;;;;;4.50;3.70;;;26.60;45.10;;;;;;5125133;28;20495;-79
2022/08/23 05:30:59;;;;;;;7.77;3.87;;;26.50;45.50;;;;;;5126464;28;20472;-80
2022/08/23 05:33:30;;;;;;;8.23;3.73;;;26.60;45.40;;;;;;5120000;28;20448;-80
2022/08/23 05:35:58;;;;;;;4.43;3.80;;;26.60;45.30;;;;;;5126454;28;20463;-79
2022/08/23 05:38:26;;;;;;;5.10;3.97;;;26.60;45.30;;;;;;5127783;28;20444;-80
2022/08/23 05:40:56;;;;;;;5.67;4.30;;;26.70;45.40;;;;;;5128347;28;20460;-79
2022/08/23 05:43:26;;;;;;;4.20;3.70;;;26.70;45.00;;;;;;5128378;28;20451;-80
2022/08/23 05:45:59;;;;;;;7.53;3.67;;;26.80;45.10;;;;;;5127944;28;20491;-79
2022/08/23 05:48:32;;;;;;;5.97;4.00;;;26.80;45.00;;;;;;5126982;28;20570;-80
2022/08/23 05:51:08;;;;;;;3.80;3.50;;;26.70;45.10;;;;;;5130323;28;20455;-80
2022/08/23 05:53:37;;;;;;;4.37;3.97;;;26.70;45.20;;;;;;5133535;28;20448;-80
2022/08/23 05:56:12;;;;;;;7.23;4.00;;;26.70;45.20;;;;;;5130302;28;20445;-79
2022/08/23 05:58:40;;;;;;;6.50;3.80;;;26.70;45.10;;;;;;5131804;27;20426;-80
2022/08/23 06:01:09;;;;;;;6.07;3.60;;;26.80;45.10;;;;;;5130653;28;20463;-80
2022/08/23 06:03:38;;;;;;;4.03;3.73;;;26.70;45.40;;;;;;5131211;28;20439;-80
2022/08/23 06:06:06;;;;;;;6.37;3.90;;;26.80;45.10;;;;;;5124907;28;20475;-80
2022/08/23 06:08:34;;;;;;;5.37;3.37;;;26.80;45.30;;;;;;5128683;28;20555;-80
2022/08/23 06:11:03;;;;;;;5.03;2.90;;;26.80;45.40;;;;;;5133561;28;20446;-81
2022/08/23 06:13:31;;;;;;;7.03;3.60;;;26.80;45.40;;;;;;5132044;28;20436;-81
2022/08/23 06:15:59;;;;;;;10.83;5.53;;;27.00;45.10;;;;;;5132400;28;20455;-80
2022/08/23 06:18:43;;;;;;;6.77;3.87;;;27.00;45.00;;;;;;5125852;28;20507;-80
2022/08/23 06:21:13;;;;;;;5.23;3.60;;;27.00;44.90;;;;;;5128132;28;20441;-80
2022/08/23 06:23:41;;;;;;;8.17;4.00;;;27.00;45.10;;;;;;5130869;28;20431;-79
2022/08/23 06:26:12;;;;;;;4.37;3.97;;;27.10;45.30;;;;;;5130861;28;20435;-80
2022/08/23 06:28:40;;;;;;;4.23;3.83;;;27.20;44.90;;;;;;5110343;28;20495;-79
2022/08/23 06:31:43;;;;;;;7.40;3.00;;;27.30;45.10;;;;;;5111100;28;20436;-79
2022/08/23 06:34:07;;;;;;;7.07;3.57;;;27.30;44.80;;;;;;5110388;28;20472;-80
2022/08/23 06:36:36;;;;;;;3.83;3.33;;;27.40;44.60;;;;;;5111429;28;20451;-80
2022/08/23 06:39:04;;;;;;;3.33;3.03;;;27.50;44.60;;;;;;5122619;28;20475;-80
2022/08/23 06:41:32;;;;;;;6.90;3.50;;;27.60;44.10;;;;;;5131393;28;20403;-79
2022/08/23 06:44:00;;;;;;;5.60;3.20;;;27.40;44.80;;;;;;5128545;28;20487;-79
2022/08/23 06:46:28;;;;;;;6.03;3.40;;;27.30;45.00;;;;;;5131144;28;20427;-79
2022/08/23 06:48:57;;;;;;;6.47;3.27;;;27.40;44.90;;;;;;5130896;28;20452;-80
2022/08/23 06:51:28;;;;;;;3.97;3.33;;;27.50;45.00;;;;;;5131780;28;20440;-79
2022/08/23 06:53:57;;;;;;;6.27;3.47;;;27.50;44.70;;;;;;5127898;28;20456;-79
2022/08/23 06:56:29;;;;;;;5.77;3.47;;;27.60;44.70;;;;;;5133034;28;20440;-80
2022/08/23 06:58:58;;;;;;;4.67;3.03;;;27.50;44.70;;;;;;5131637;28;20447;-80
2022/08/23 07:01:28;;;;;;;8.03;2.93;;;27.40;44.70;;;;;;5129741;28;20443;-80
2022/08/23 07:04:14;;;;;;;5.10;2.83;;;27.50;45.00;;;;;;5131626;28;20486;-80
2022/08/23 07:06:43;;;;;;;4.53;4.00;;;27.60;44.90;;;;;;5132130;28;20531;-81
2022/08/23 07:09:12;;;;;;;8.43;3.57;;;27.70;44.70;;;;;;5132891;28;20468;-80
2022/08/23 07:11:40;;;;;;;5.80;3.67;;;27.80;44.70;;;;;;5122700;28;20891;-80
2022/08/23 07:14:10;;;;;;;5.50;3.53;;;27.90;44.20;;;;;;5132216;28;20467;-80
2022/08/23 07:16:39;;;;;;;7.73;3.40;;;27.80;44.60;;;;;;5121945;28;20467;-81
2022/08/23 07:19:07;;;;;;;4.97;3.30;;;27.80;44.60;;;;;;5121906;28;20493;-81
2022/08/23 07:21:36;;;;;;;8.37;3.47;;;27.60;44.70;;;;;;5128065;28;20444;-82
2022/08/23 07:24:05;;;;;;;5.23;3.57;;;27.30;45.00;;;;;;5126770;28;20462;-79
2022/08/23 07:26:34;;;;;;;4.83;3.33;;;27.30;45.20;;;;;;5118226;28;20452;-83
2022/08/23 07:29:03;;;;;;;6.00;3.57;;;27.30;45.60;;;;;;5124368;28;20495;-80
2022/08/23 07:31:31;;;;;;;4.40;3.27;;;27.10;45.40;;;;;;5121453;28;20474;-79
2022/08/23 07:34:01;;;;;;;6.43;3.30;;;26.90;46.30;;;;;;5106597;28;20460;-80
2022/08/23 07:36:30;;;;;;;6.80;3.10;;;27.00;46.10;;;;;;5114219;28;20527;-80
2022/08/23 07:38:58;;;;;;;10.77;4.30;;;27.30;45.40;;;;;;5118805;28;20518;-79
2022/08/23 07:41:30;;;;;;;9.83;3.90;;;27.50;44.80;;;;;;5109222;28;20541;-79
2022/08/23 07:44:01;;;;;;;5.60;3.20;;;27.40;44.90;;;;;;5117874;28;20455;-80
2022/08/23 07:46:29;;;;;;;6.00;3.70;;;27.40;44.80;;;;;;5120308;28;20493;-79
2022/08/23 07:48:57;;;;;;;11.67;5.40;;;27.30;45.20;;;;;;5123502;28;20468;-79
2022/08/23 07:51:26;;;;;;;9.00;3.70;;;27.60;45.00;;;;;;5123183;28;20440;-79
2022/08/23 07:53:54;;;;;;;13.77;3.73;;;27.10;46.30;;;;;;5120140;28;20444;-80
2022/08/23 07:56:22;;;;;;;9.57;3.70;;;27.40;45.40;;;;;;5111467;28;20452;-79
2022/08/23 07:58:51;;;;;;;5.27;3.47;;;27.00;46.20;;;;;;5112316;28;20431;-79
2022/08/23 08:01:21;;;;;;;5.47;3.50;;;26.90;46.60;;;;;;5127131;28;20432;-79
2022/08/23 08:03:51;;;;;;;7.33;3.60;;;27.20;46.20;;;;;;5126425;28;20486;-81
2022/08/23 08:06:20;;;;;;;6.80;3.40;;;27.60;45.30;;;;;;5128087;28;20444;-80
2022/08/23 08:08:48;;;;;;;9.13;3.20;;;28.00;44.50;;;;;;5125837;28;20495;-79
2022/08/23 08:11:17;;;;;;;3.60;3.10;;;28.40;43.90;;;;;;5124774;28;20474;-80
2022/08/23 08:13:45;;;;;;;8.33;3.50;;;28.70;42.90;;;;;;5123333;28;20434;-79
2022/08/23 08:16:22;;;;;;;11.50;3.00;;;28.40;44.00;;;;;;5126948;28;20405;-80
2022/08/23 08:18:51;;;;;;;10.90;3.23;;;28.70;43.60;;;;;;5109486;28;20481;-81
2022/08/23 08:21:19;;;;;;;7.60;3.07;;;29.00;43.10;;;;;;5122577;28;20457;-82
2022/08/23 08:23:47;;;;;;;8.70;3.27;;;28.30;44.40;;;;;;5126933;28;20447;-81
2022/08/23 08:26:15;;;;;;;5.93;3.13;;;28.60;43.60;;;;;;5129421;28;20439;-82
2022/08/23 08:28:43;;;;;;;4.60;2.87;;;28.60;43.30;;;;;;5129501;28;20494;-81
2022/08/23 08:31:11;;;;;;;3.00;2.70;;;28.70;43.80;;;;;;5111750;28;20479;-80
2022/08/23 08:33:41;;;;;;;6.37;3.30;;;29.10;43.00;;;;;;5125606;28;20448;-80
2022/08/23 08:36:09;;;;;;;6.13;3.47;;;29.00;42.80;;;;;;5126814;28;20459;-81
2022/08/23 08:38:38;;;;;;;5.93;3.27;;;28.60;43.60;;;;;;5116524;28;20452;-80
2022/08/23 08:41:19;;;;;;;8.50;2.83;;;28.70;43.50;;;;;;5126572;28;20451;-79
2022/08/23 08:43:53;;;;;;;7.63;3.03;;;28.70;43.00;;;;;;5124509;28;20466;-78
2022/08/23 08:46:31;;;;;;;7.13;2.60;;;28.60;43.20;;;;;;5116317;28;20444;-81
2022/08/23 08:49:16;;;;;;;8.10;2.50;;;29.50;41.70;;;;;;5116487;28;20467;-83
2022/08/23 08:51:53;;;;;;;12.87;2.67;;;29.80;40.30;;;;;;5109832;28;20444;-83
2022/08/23 08:54:26;;;;;;;5.37;2.97;;;30.20;39.80;;;;;;5108942;28;20456;-84
2022/08/23 08:57:01;;;;;;;7.80;2.97;;;30.60;38.60;;;;;;5113223;28;20416;-84
2022/08/23 08:59:31;;;;;;;4.10;2.83;;;30.70;38.10;;;;;;5118382;28;20431;-82
2022/08/23 09:01:59;;;;;;;4.70;2.30;;;30.80;38.20;;;;;;5116389;28;20962;-81
2022/08/23 09:04:29;;;;;;;4.20;2.37;;;30.90;37.60;;;;;;5117901;28;20474;-83
2022/08/23 09:07:01;;;;;;;10.23;2.33;;;31.10;37.60;;;;;;5107143;28;20470;-81
2022/08/23 09:09:47;;;;;;;5.10;3.10;;;31.40;37.10;;;;;;5107633;28;20488;-82
2022/08/23 09:12:20;;;;;;;8.30;2.90;;;31.60;36.70;;;;;;5107910;28;20661;-81
2022/08/23 09:14:55;;;;;;;3.53;2.37;;;32.00;35.90;;;;;;5126667;28;20464;-81
2022/08/23 09:17:30;;;;;;;5.67;3.20;;;32.10;35.70;;;;;;5128300;28;20450;-81
2022/08/23 09:20:02;;;;;;;4.77;2.63;;;32.10;35.60;;;;;;5125574;28;20439;-81
2022/08/23 09:22:33;;;;;;;6.43;2.70;;;32.20;35.80;;;;;;5124987;28;20443;-82
2022/08/23 09:25:15;;;;;;;12.40;2.30;;;32.50;35.30;;;;;;5124149;28;20550;-82
2022/08/23 09:27:46;;;;;;;2.53;2.27;;;32.80;34.90;;;;;;5133330;28;20482;-81
2022/08/23 09:30:16;;;;;;;5.33;2.23;;;32.90;34.60;;;;;;5131522;28;20478;-82
2022/08/23 09:35:31;;;;;;;4.77;2.57;;;33.00;34.80;;;;;;5112144;28;20463;-83
2022/08/23 09:38:15;;;;;;;3.07;2.10;;;33.10;34.60;;;;;;5122870;28;20512;-82
2022/08/23 09:41:01;;;;;;;7.43;2.63;;;33.20;34.60;;;;;;5134208;28;20439;-82
2022/08/23 09:43:37;;;;;;;5.50;2.90;;;33.40;34.50;;;;;;5121663;28;20512;-81
2022/08/23 09:46:11;;;;;;;4.33;2.70;;;33.50;34.10;;;;;;5121441;28;20440;-82
2022/08/23 09:48:43;;;;;;;4.03;2.40;;;33.50;33.90;;;;;;5112485;28;20448;-83
2022/08/23 09:51:17;;;;;;;3.87;2.57;;;33.70;34.10;;;;;;5101761;28;20472;-82
2022/08/23 09:53:48;;;;;;;3.17;2.40;;;33.80;33.60;;;;;;5102591;28;20466;-81
2022/08/23 09:56:22;;;;;;;2.47;2.37;;;33.90;33.70;;;;;;5102625;28;20448;-82
2022/08/23 09:58:52;;;;;;;5.37;2.23;;;34.10;33.50;;;;;;5103334;28;20475;-81
2022/08/23 10:01:24;;;;;;;9.00;2.40;;;34.20;32.50;;;;;;5101360;28;20454;-81
2022/08/23 10:04:09;;;;;;;3.37;2.07;;;34.20;32.60;;;;;;5098828;28;20444;-81
2022/08/23 10:07:24;;;;;;;12.60;2.30;;;34.30;32.40;;;;;;5109371;28;20458;-81
2022/08/23 10:09:55;;;;;;;4.60;2.30;;;34.30;32.00;;;;;;5094000;28;20498;-81
2022/08/23 10:12:25;;;;;;;2.00;1.90;;;34.40;31.60;;;;;;5098340;28;20456;-81
2022/08/23 10:14:54;;;;;;;4.47;2.30;;;34.40;32.10;;;;;;5099905;28;20468;-81
2022/08/23 10:17:32;;;;;;;7.00;2.20;;;34.60;31.20;;;;;;5100852;28;20479;-80
2022/08/23 10:20:04;;;;;;;4.97;2.40;;;34.70;30.70;;;;;;5099011;28;20444;-81
2022/08/23 10:23:22;;;;;;;3.10;2.30;;;34.80;30.70;;;;;;5104213;28;20460;-81
2022/08/23 10:29:39;;;;;;;7.17;2.30;;;34.90;30.30;;;;;;5085540;28;20476;-81
2022/08/23 10:32:18;;;;;;;2.30;2.03;;;35.10;30.00;;;;;;5098921;28;20449;-81
2022/08/23 10:35:05;;;;;;;2.57;1.67;;;35.20;29.80;;;;;;5098415;28;20471;-81
2022/08/23 10:37:45;;;;;;;2.23;2.00;;;35.10;30.30;;;;;;5098677;28;20445;-80
2022/08/23 10:40:33;;;;;;;2.27;1.90;;;35.10;30.20;;;;;;5098028;28;20440;-81
2022/08/23 10:43:29;;;;;;;2.40;1.90;;;35.20;29.90;;;;;;5115306;28;20423;-80
2022/08/23 10:46:12;;;;;;;2.00;1.80;;;35.50;29.80;;;;;;5118705;28;20485;-80
2022/08/23 10:48:50;;;;;;;3.10;2.23;;;35.60;29.40;;;;;;5118985;28;20443;-80
2022/08/23 10:51:22;;;;;;;2.20;2.10;;;35.60;29.40;;;;;;5129370;28;20502;-82
2022/08/23 10:54:02;;;;;;;9.50;2.07;;;35.70;29.20;;;;;;5118509;28;20463;-82
2022/08/23 10:56:30;;;;;;;9.30;2.57;;;35.60;28.90;;;;;;5118761;28;20443;-82
2022/08/23 10:59:01;;;;;;;3.43;2.00;;;35.80;28.80;;;;;;5117120;28;20444;-82
2022/08/23 11:01:31;;;;;;;2.40;1.80;;;35.90;28.70;;;;;;5118360;28;20529;-82
2022/08/23 11:04:02;;;;;;;5.90;1.90;;;35.80;28.80;;;;;;5118921;28;20466;-82
2022/08/23 11:06:43;;;;;;;2.80;1.90;;;35.90;28.60;;;;;;5117857;28;20432;-82
2022/08/23 11:09:31;;;;;;;2.10;2.00;;;36.00;28.80;;;;;;5116911;28;20443;-82
2022/08/23 11:12:22;;;;;;;2.13;1.67;;;35.90;28.70;;;;;;5117735;28;20505;-82
2022/08/23 11:15:17;;;;;;;10.80;2.17;;;35.90;28.90;;;;;;5111286;28;21024;-82
2022/08/23 11:18:17;;;;;;;;;;;;;;;;;;;;;
2022/08/23 11:21:00;;;;;;;2.23;1.90;;;36.00;28.80;;;;;;5107209;28;20443;-82
2022/08/23 11:23:49;;;;;;;8.83;2.27;;;35.80;29.00;;;;;;5105090;28;20432;-81
2022/08/23 11:27:01;;;;;;;6.13;1.80;;;36.00;28.90;;;;;;5104357;28;20436;-82
2022/08/23 11:29:35;;;;;;;3.93;1.63;;;36.10;28.70;;;;;;5104849;28;20449;-82
2022/08/23 11:32:36;;;;;;;5.40;1.67;;;36.00;29.20;;;;;;5109704;28;20468;-82
2022/08/23 11:35:10;;;;;;;3.37;1.70;;;36.10;29.30;;;;;;5104887;28;21026;-82
2022/08/23 11:37:56;;;;;;;3.10;1.83;;;36.10;29.20;;;;;;5103446;28;20452;-81
2022/08/23 11:40:39;;;;;;;2.37;1.90;;;36.10;29.20;;;;;;5105569;28;20475;-81
2022/08/23 11:43:11;;;;;;;5.30;1.93;;;36.20;29.20;;;;;;5104099;28;20447;-81
2022/08/23 11:45:43;;;;;;;2.17;1.90;;;36.20;29.20;;;;;;5104856;28;20472;-81
2022/08/23 11:48:16;;;;;;;3.67;1.83;;;36.30;28.90;;;;;;5123998;28;20444;-81
2022/08/23 11:51:14;;;;;;;3.37;1.80;;;36.30;28.90;;;;;;5124386;28;20468;-81
2022/08/23 11:54:19;;;;;;;3.27;2.00;;;36.40;28.70;;;;;;5125094;28;20815;-81
2022/08/23 11:57:07;;;;;;;3.70;1.97;;;36.30;28.70;;;;;;5122426;28;20838;-81
2022/08/23 12:00:03;;;;;;;2.00;1.83;;;36.50;28.70;;;;;;5124580;28;20513;-81
2022/08/23 12:02:40;;;;;;;4.47;1.80;;;36.50;28.50;;;;;;5124269;28;20447;-81
2022/08/23 12:05:31;;;;;;;1.33;1.33;;;36.50;28.50;;;;;;5124265;28;20538;-81
2022/08/23 12:08:28;;;;;;;3.90;1.90;;;36.50;28.80;;;;;;5103336;28;20871;-82
2022/08/23 12:11:07;;;;;;;4.93;1.80;;;36.60;28.70;;;;;;5103704;28;20468;-80
2022/08/23 12:13:47;;;;;;;8.37;1.83;;;36.60;28.60;;;;;;5102750;28;20475;-81
2022/08/23 12:16:37;;;;;;;2.03;1.93;;;36.70;27.90;;;;;;5102243;28;20472;-81
2022/08/23 12:19:21;;;;;;;3.93;1.80;;;36.80;27.80;;;;;;5101741;28;20453;-82
2022/08/23 12:21:54;;;;;;;1.87;1.73;;;36.80;28.00;;;;;;5115472;28;20439;-81
2022/08/23 12:24:31;;;;;;;2.50;1.90;;;36.80;27.90;;;;;;5122974;28;20990;-81
2022/08/23 12:27:07;;;;;;;1.73;1.60;;;36.90;27.80;;;;;;5123066;28;20443;-82
2022/08/23 12:29:44;;;;;;;12.93;1.80;;;36.90;27.80;;;;;;5124007;28;20443;-82
2022/08/23 12:32:21;;;;;;;2.33;1.77;;;36.90;27.30;;;;;;5122172;28;20481;-82
2022/08/23 12:35:03;;;;;;;2.20;2.00;;;36.90;27.80;;;;;;5121738;28;20472;-82
2022/08/23 12:37:38;;;;;;;2.90;1.30;;;37.00;27.80;;;;;;5117220;28;20447;-82
2022/08/23 12:40:11;;;;;;;2.20;1.73;;;37.10;27.80;;;;;;5123267;28;20961;-82
2022/08/23 12:42:40;;;;;;;3.23;1.93;;;37.10;27.80;;;;;;5124500;28;20438;-81
2022/08/23 12:45:12;;;;;;;5.70;1.43;;;37.10;27.90;;;;;;5125707;28;20542;-82
2022/08/23 12:47:42;;;;;;;3.87;1.60;;;37.20;27.80;;;;;;5124545;28;20463;-82
2022/08/23 12:50:21;;;;;;;5.13;1.70;;;37.10;27.70;;;;;;5125055;28;20493;-81
2022/08/23 12:53:02;;;;;;;2.50;1.53;;;37.20;27.70;;;;;;5124959;28;20447;-81
2022/08/23 12:55:34;;;;;;;3.10;1.97;;;37.20;27.50;;;;;;5118539;28;20463;-82
2022/08/23 12:58:03;;;;;;;3.80;2.17;;;37.30;27.60;;;;;;5125031;28;20436;-82
2022/08/23 13:00:32;;;;;;;4.47;1.60;;;37.20;27.80;;;;;;5127979;28;20518;-82
2022/08/23 13:03:05;;;;;;;1.90;1.80;;;37.30;27.70;;;;;;5129257;28;20440;-82
2022/08/23 13:05:42;;;;;;;4.10;1.70;;;37.30;27.90;;;;;;5128411;28;20475;-82
2022/08/23 13:08:14;;;;;;;6.70;1.60;;;37.30;27.70;;;;;;5129290;28;20436;-82
2022/08/23 13:10:43;;;;;;;2.17;1.90;;;37.40;27.80;;;;;;5127566;28;20431;-81
2022/08/23 13:13:13;;;;;;;2.10;1.23;;;37.30;27.60;;;;;;5131756;28;20468;-81
2022/08/23 13:16:02;;;;;;;1.73;1.50;;;37.30;27.60;;;;;;5133506;28;20460;-81
2022/08/23 13:18:32;;;;;;;1.93;1.50;;;37.40;27.60;;;;;;5131962;28;20443;-81
2022/08/23 13:21:19;;;;;;;1.90;1.80;;;37.40;27.60;;;;;;5129670;28;20527;-81
2022/08/23 13:23:51;;;;;;;4.93;1.80;;;37.40;27.40;;;;;;5121283;28;20466;-81
2022/08/23 13:26:45;;;;;;;3.60;1.70;;;37.40;27.50;;;;;;5128491;28;20508;-84
2022/08/23 13:29:22;;;;;;;2.30;1.63;;;37.50;27.20;;;;;;5113694;28;20502;-82
2022/08/23 13:31:56;;;;;;;1.93;1.70;;;37.50;27.10;;;;;;5107557;28;20468;-82